Carlton, Washington
Current Conditions -  °F | °C
As of 8:53 AM on Monday 24 Nov 2014 (Local Time) from KOMK Reporting Station
Broken Clouds Broken Clouds  
Wind Chill: 27°   Ceiling: 11000
Heat Index: 27°   Visibility: 10mi
Dew Point: 25°   Wind: 0mph
Humidity: 92%   Direction: NA
Pressure: 30.34"   Gusts: NA
Location:  48.25°N, 120.12°W
Report Text: KOMK 241653Z AUTO 00000KT 10SM BKN110 M03/M04 A3034 RMK AO2 SLP292 T10281039
Loading
Personal Weather Stations






























Interactive Weather Map New forecast layout! Learn more

10-Day Weather Forecast

Advertisements
Track Severe Weather on mobile